Hlavní strana
METAR-TAF:

METAR-TAF

Letiště :

La Paz, Bolívie

zeměpisná šířka: 16-31S, zeměpisná délka: 068-11W, výška: 4058 m

Aktuální stav počasí

Zpráva byla vytvořena před 44 minutami, v 08:00 UTC
Severní vítr 4 kt
Teplota 0°C
Vlhkost vzduchu 43%
Tlak 1037 hPa
Viditelnost 10 km a více

METAR: SLLP 280800Z 01004KT 9999 NSC 00/M11 Q1037

Čas: 04:44 (08:44 UTC)

Předpověď počasí

Zpráva byla vytvořena před 4 hodinami a 44 minutami, v 04:00 UTC
Předpověď platná od 28 v 06 UTC do 29 v 06 UTC
Severovýchodní vítr 5 kt
Viditelnost 10 km a více
Změna
od 28 v 12 UTC do 28 v 14 UTC
Západní vítr 8 kt
Změna
od 28 v 15 UTC do 28 v 17 UTC
Jihojihovýchodní vítr 13 kt

TAF: SLLP 280400Z 2806/2906 05005KT 9999 NSC TX18/2820Z TNM03/2810Z BECMG 2812/2814 26008KT BECMG 2815/2817 15013KT

Stav a předpovědi počasí z více než 4 000 letišť (zprávy METAR a TAF).

Červené a žluté tečky na mapě představují dostupné meteorologické stanice.

Když kurzor umístíte na tečku, zobrazí se název stanice.

Pak kliknutím zobrazíte stav a předpověď počasí.

Chcete-li změnit mapu, kliknutím na zelené tlačítko se znaménkem +mapu přiblížíte, kliknutím na zelené tlačítko se znaménkem – mapu oddálíte a kliknutím na zelené šipky přejdete na sousední mapy.


METAR-TAF: